Terminal Aerodrome Forecast
Issued by NWS Corpus Christi, TX

Home | Current Version | Previous Version | Text Only | Print | Product List | Glossary On
Versions: 1 2 3 4 5 6 7 8 9 10 11 12 13 14
000
FTUS44 KCRP 041723
TAFVCT
TAF
KVCT 041723Z 0418/0518 17012G18KT P6SM VCTS SCT040CB
     FM050000 15010KT P6SM FEW025 SCT250
     FM051000 VRB03KT 6SM BR SCT015
      TEMPO 0510/0513 BKN015
     FM051500 18012KT P6SM SCT025=

USA.gov is the U.S. government's official web portal to all federal, state and local government web resources and services.